Time;durP1;ratioP1;P1;durP2;ratioP2;P2;SDS_P1;SDS_P2;PMS_P1;PMS_P2;Temp;Humidity;BMP_temperature;BMP_pressure;BME280_temperature;BME280_humidity;BME280_pressure;Samples;Min_cycle;Max_cycle;Signal;HPM_P1;HPM_P2
2023/12/31 00:02:43;;;;;;;;;;;6.00;81.00;;;;;;4167517;28;19928;-85
2023/12/31 00:05:14;;;;;;;;;;;6.00;81.10;;;;;;4172613;28;20003;-85
2023/12/31 00:07:34;;;;;;;;;;;6.10;81.10;;;;;;4181286;28;19909;-85
2023/12/31 00:09:55;;;;;;;;;;;6.00;81.10;;;;;;4187198;28;20270;-85
2023/12/31 00:11:59;;;;;;;;;;;6.10;81.20;;;;;;4169712;28;19920;-85
2023/12/31 00:14:20;;;;;;;;;;;6.20;81.30;;;;;;4168674;28;19921;-85
2023/12/31 00:16:40;;;;;;;;;;;6.10;81.20;;;;;;4184000;28;20021;-85
2023/12/31 00:19:01;;;;;;;;;;;6.00;81.20;;;;;;4187632;28;19963;-84
2023/12/31 00:21:20;;;;;;;;;;;6.10;81.30;;;;;;4172341;28;20354;-85
2023/12/31 00:23:41;;;;;;;;;;;6.00;81.20;;;;;;4186058;28;19916;-86
2023/12/31 00:26:27;;;;;;;;;;;;;;;;;;;;;
2023/12/31 00:28:51;;;;;;;;;;;6.20;81.40;;;;;;4186558;28;19920;-85
2023/12/31 00:31:14;;;;;;;;;;;6.10;81.30;;;;;;4185781;28;19921;-86
2023/12/31 00:33:38;;;;;;;;;;;6.00;81.30;;;;;;4185936;28;19920;-85
2023/12/31 00:36:00;;;;;;;;;;;6.10;81.30;;;;;;4175181;28;20032;-85
2023/12/31 00:38:09;;;;;;;;;;;6.10;81.30;;;;;;4183157;28;19923;-85
2023/12/31 00:40:12;;;;;;;;;;;6.10;81.30;;;;;;4155657;28;19921;-85
2023/12/31 00:42:27;;;;;;;;;;;6.10;81.30;;;;;;4170560;28;20138;-87
2023/12/31 00:44:34;;;;;;;;;;;6.10;81.30;;;;;;4166797;28;19917;-85
2023/12/31 00:46:35;;;;;;;;;;;6.00;81.20;;;;;;4168664;28;19936;-86
2023/12/31 00:48:38;;;;;;;;;;;6.10;81.20;;;;;;4190935;28;19916;-85
2023/12/31 00:50:53;;;;;;;;;;;6.10;81.20;;;;;;4167492;28;20713;-84
2023/12/31 00:53:12;;;;;;;;;;;6.00;81.20;;;;;;4154509;28;19921;-85
2023/12/31 00:55:26;;;;;;;;;;;6.00;81.20;;;;;;4154942;28;19917;-85
2023/12/31 00:57:32;;;;;;;;;;;6.10;81.30;;;;;;4153580;28;19933;-85
2023/12/31 00:59:36;;;;;;;;;;;6.00;81.30;;;;;;4174791;28;20433;-85
2023/12/31 01:01:48;;;;;;;;;;;6.10;81.40;;;;;;4168332;28;19987;-86
2023/12/31 01:03:50;;;;;;;;;;;6.00;81.30;;;;;;4183386;28;19999;-86
2023/12/31 01:05:51;;;;;;;;;;;6.00;81.30;;;;;;4185709;28;19948;-86
2023/12/31 01:07:52;;;;;;;;;;;6.00;81.30;;;;;;4157692;28;19917;-85
2023/12/31 01:09:53;;;;;;;;;;;6.10;81.40;;;;;;4187283;28;19939;-85
2023/12/31 01:11:53;;;;;;;;;;;6.10;81.40;;;;;;4156621;28;19924;-85
2023/12/31 01:13:54;;;;;;;;;;;6.00;81.40;;;;;;4150088;28;19993;-85
2023/12/31 01:16:00;;;;;;;;;;;6.00;81.40;;;;;;4153836;28;20176;-85
2023/12/31 01:18:16;;;;;;;;;;;6.00;81.40;;;;;;4168866;28;19921;-85
2023/12/31 01:20:31;;;;;;;;;;;6.10;81.50;;;;;;4170121;28;19913;-86
2023/12/31 01:22:44;;;;;;;;;;;6.00;81.40;;;;;;4168489;28;19921;-85
2023/12/31 01:24:45;;;;;;;;;;;6.00;81.50;;;;;;4154400;28;19917;-85
2023/12/31 01:26:48;;;;;;;;;;;6.00;81.50;;;;;;4157836;28;19921;-85
2023/12/31 01:28:51;;;;;;;;;;;6.00;81.40;;;;;;4173412;28;19974;-85
2023/12/31 01:30:52;;;;;;;;;;;6.10;81.40;;;;;;4154489;28;20655;-85
2023/12/31 01:32:52;;;;;;;;;;;6.10;81.50;;;;;;4154236;28;19948;-85
2023/12/31 01:34:59;;;;;;;;;;;6.00;81.50;;;;;;4171547;28;20007;-86
2023/12/31 01:37:03;;;;;;;;;;;6.00;81.50;;;;;;4184269;28;19916;-84
2023/12/31 01:39:09;;;;;;;;;;;6.00;81.50;;;;;;4153555;28;19913;-85
2023/12/31 01:41:11;;;;;;;;;;;6.00;81.60;;;;;;4171166;28;19916;-85
2023/12/31 01:43:34;;;;;;;;;;;6.10;81.70;;;;;;4184382;28;19917;-86
2023/12/31 01:45:59;;;;;;;;;;;6.10;81.70;;;;;;4176371;28;19999;-85
2023/12/31 01:48:22;;;;;;;;;;;6.00;81.60;;;;;;4172354;28;19924;-85
2023/12/31 01:50:44;;;;;;;;;;;6.10;81.70;;;;;;4168366;28;20492;-86
2023/12/31 01:53:16;;;;;;;;;;;6.00;81.60;;;;;;4174894;28;19920;-86
2023/12/31 01:55:17;;;;;;;;;;;6.00;81.60;;;;;;4187236;28;19919;-85
2023/12/31 01:57:44;;;;;;;;;;;5.90;81.60;;;;;;4191732;28;19951;-85
2023/12/31 02:00:08;;;;;;;;;;;6.00;81.60;;;;;;4188111;28;19917;-85
2023/12/31 02:02:11;;;;;;;;;;;6.00;81.60;;;;;;4160929;28;19940;-85
2023/12/31 02:04:50;;;;;;;;;;;6.10;81.70;;;;;;4176339;28;19965;-85
2023/12/31 02:07:12;;;;;;;;;;;6.00;81.60;;;;;;4179084;28;19924;-85
2023/12/31 02:09:32;;;;;;;;;;;6.00;81.60;;;;;;4178490;28;19916;-85
2023/12/31 02:11:59;;;;;;;;;;;6.00;81.60;;;;;;4179105;28;19955;-85
2023/12/31 02:14:28;;;;;;;;;;;6.00;82.40;;;;;;4175094;28;19917;-85
2023/12/31 02:17:08;;;;;;;;;;;;;;;;;;;;;
2023/12/31 02:19:45;;;;;;;;;;;6.00;81.70;;;;;;4191474;28;19928;-85
2023/12/31 02:22:18;;;;;;;;;;;6.00;81.70;;;;;;4192564;28;19960;-85
2023/12/31 02:24:50;;;;;;;;;;;5.90;81.60;;;;;;4185564;28;19920;-85
2023/12/31 02:27:25;;;;;;;;;;;6.10;81.70;;;;;;4189501;28;19916;-84
2023/12/31 02:29:48;;;;;;;;;;;6.10;81.70;;;;;;4176922;28;19921;-85
2023/12/31 02:31:52;;;;;;;;;;;6.10;81.70;;;;;;4170621;28;20011;-86
2023/12/31 02:33:53;;;;;;;;;;;6.10;81.70;;;;;;4174107;28;19948;-86
2023/12/31 02:35:57;;;;;;;;;;;6.10;81.80;;;;;;4174176;28;19917;-84
2023/12/31 02:38:11;;;;;;;;;;;6.10;81.70;;;;;;4161571;28;19921;-85
2023/12/31 02:40:13;;;;;;;;;;;6.00;81.70;;;;;;4174491;28;19916;-86
2023/12/31 02:42:23;;;;;;;;;;;6.00;81.60;;;;;;4161050;28;19921;-85
2023/12/31 02:44:29;;;;;;;;;;;6.10;81.70;;;;;;4161777;28;19921;-85
2023/12/31 02:46:30;;;;;;;;;;;6.10;81.80;;;;;;4185897;28;20773;-86
2023/12/31 02:48:35;;;;;;;;;;;6.00;81.70;;;;;;4189717;28;19923;-85
2023/12/31 02:50:58;;;;;;;;;;;6.10;81.70;;;;;;4191674;28;19917;-84
2023/12/31 02:53:19;;;;;;;;;;;6.10;81.70;;;;;;4190676;28;19952;-84
2023/12/31 02:55:39;;;;;;;;;;;6.10;81.70;;;;;;4191366;28;20163;-85
2023/12/31 02:57:53;;;;;;;;;;;6.10;81.70;;;;;;4187753;28;19969;-85
2023/12/31 03:00:05;;;;;;;;;;;6.10;81.70;;;;;;4155598;28;20386;-85
2023/12/31 03:02:05;;;;;;;;;;;6.10;81.70;;;;;;4172546;28;19921;-85
2023/12/31 03:04:09;;;;;;;;;;;6.20;81.80;;;;;;4172711;28;19909;-85
2023/12/31 03:06:15;;;;;;;;;;;6.10;81.70;;;;;;4192147;28;19912;-85
2023/12/31 03:08:30;;;;;;;;;;;6.10;81.70;;;;;;4171750;28;19917;-85
2023/12/31 03:10:30;;;;;;;;;;;6.20;81.90;;;;;;4189412;28;20006;-85
2023/12/31 03:12:34;;;;;;;;;;;6.20;81.80;;;;;;4180652;28;20064;-86
2023/12/31 03:14:40;;;;;;;;;;;6.20;81.80;;;;;;4179500;28;19933;-85
2023/12/31 03:16:50;;;;;;;;;;;6.20;81.80;;;;;;4178804;28;19997;-86
2023/12/31 03:18:58;;;;;;;;;;;6.10;81.70;;;;;;4194422;28;19968;-86
2023/12/31 03:21:22;;;;;;;;;;;6.20;81.80;;;;;;4196418;28;20964;-87
2023/12/31 03:23:33;;;;;;;;;;;6.20;81.80;;;;;;4196785;28;19931;-86
2023/12/31 03:25:54;;;;;;;;;;;6.20;81.80;;;;;;4193631;28;19916;-87
2023/12/31 03:28:17;;;;;;;;;;;6.10;81.80;;;;;;4211033;28;19904;-85
2023/12/31 03:30:40;;;;;;;;;;;6.10;81.80;;;;;;4213502;28;19904;-87
2023/12/31 03:32:58;;;;;;;;;;;6.20;81.80;;;;;;4183554;28;19926;-86
2023/12/31 03:35:51;;;;;;;;;;;6.10;81.80;;;;;;4198373;28;19905;-87
2023/12/31 03:38:17;;;;;;;;;;;6.10;81.70;;;;;;4205235;28;19913;-85
2023/12/31 03:40:41;;;;;;;;;;;6.30;81.90;;;;;;4200793;28;19952;-86
2023/12/31 03:43:06;;;;;;;;;;;6.20;81.80;;;;;;4200050;28;19940;-86
2023/12/31 03:45:29;;;;;;;;;;;6.20;81.80;;;;;;4194771;28;19920;-85
2023/12/31 03:47:46;;;;;;;;;;;6.20;81.80;;;;;;4169172;28;19921;-86
2023/12/31 03:50:11;;;;;;;;;;;6.20;81.80;;;;;;4198441;28;19917;-86
2023/12/31 03:52:41;;;;;;;;;;;6.20;81.90;;;;;;4188360;28;19976;-85
2023/12/31 03:55:05;;;;;;;;;;;6.30;81.90;;;;;;4195302;28;19927;-86
2023/12/31 03:57:26;;;;;;;;;;;6.30;82.70;;;;;;4185325;28;19921;-85
2023/12/31 03:59:46;;;;;;;;;;;6.30;81.90;;;;;;4195755;28;19935;-85
2023/12/31 04:02:07;;;;;;;;;;;6.20;81.80;;;;;;4183930;28;19916;-85
2023/12/31 04:04:29;;;;;;;;;;;6.30;81.90;;;;;;4197445;28;19995;-85
2023/12/31 04:06:55;;;;;;;;;;;6.30;81.90;;;;;;4183025;28;19941;-85
2023/12/31 04:09:02;;;;;;;;;;;6.30;81.90;;;;;;4196138;28;19917;-85
2023/12/31 04:11:14;;;;;;;;;;;6.30;81.80;;;;;;4192988;28;19912;-84
2023/12/31 04:13:20;;;;;;;;;;;6.30;81.90;;;;;;4178341;28;19923;-84
2023/12/31 04:15:23;;;;;;;;;;;6.30;81.90;;;;;;4163112;28;19917;-86
2023/12/31 04:17:35;;;;;;;;;;;6.30;81.80;;;;;;4177859;28;19913;-85
2023/12/31 04:19:39;;;;;;;;;;;6.30;81.80;;;;;;4164602;28;19931;-86
2023/12/31 04:21:43;;;;;;;;;;;6.30;81.80;;;;;;4163699;28;19917;-84
2023/12/31 04:23:46;;;;;;;;;;;6.30;81.80;;;;;;4161437;28;19990;-85
2023/12/31 04:25:53;;;;;;;;;;;6.30;81.80;;;;;;4178456;28;20583;-86
2023/12/31 04:28:19;;;;;;;;;;;6.40;81.90;;;;;;4180687;28;20008;-86
2023/12/31 04:30:40;;;;;;;;;;;6.30;81.80;;;;;;4194922;28;19912;-85
2023/12/31 04:33:03;;;;;;;;;;;6.30;81.90;;;;;;4189423;28;20304;-86
2023/12/31 04:35:24;;;;;;;;;;;6.40;82.00;;;;;;4194989;28;19916;-84
2023/12/31 04:37:47;;;;;;;;;;;6.40;82.00;;;;;;4198035;28;19917;-85
2023/12/31 04:40:14;;;;;;;;;;;6.30;81.90;;;;;;4181131;28;19916;-85
2023/12/31 04:42:43;;;;;;;;;;;6.30;81.90;;;;;;4194186;28;19916;-85
2023/12/31 04:45:27;;;;;;;;;;;6.30;81.90;;;;;;4194059;28;19939;-84
2023/12/31 04:47:50;;;;;;;;;;;6.30;81.90;;;;;;4191034;28;19921;-85
2023/12/31 04:50:21;;;;;;;;;;;;;;;;;;;;;
2023/12/31 04:52:42;;;;;;;;;;;6.30;81.80;;;;;;4195086;28;20003;-85
2023/12/31 04:55:01;;;;;;;;;;;6.40;81.90;;;;;;4192203;28;20190;-85
2023/12/31 04:57:13;;;;;;;;;;;6.30;81.80;;;;;;4176930;28;20443;-85
2023/12/31 04:59:20;;;;;;;;;;;6.40;81.90;;;;;;4171203;28;19925;-85
2023/12/31 05:01:26;;;;;;;;;;;6.30;81.80;;;;;;4192120;28;19942;-85
2023/12/31 05:03:50;;;;;;;;;;;6.30;81.90;;;;;;4162663;28;19917;-86
2023/12/31 05:06:16;;;;;;;;;;;6.40;81.90;;;;;;4179754;28;20042;-85
2023/12/31 05:08:37;;;;;;;;;;;6.40;81.80;;;;;;4166372;28;19996;-84
2023/12/31 05:11:02;;;;;;;;;;;6.40;81.90;;;;;;4177638;28;19921;-85
2023/12/31 05:13:26;;;;;;;;;;;6.50;81.90;;;;;;4162939;28;19913;-85
2023/12/31 05:15:54;;;;;;;;;;;6.30;81.90;;;;;;4196392;28;19950;-84
2023/12/31 05:18:04;;;;;;;;;;;6.40;81.90;;;;;;4194200;28;19951;-85
2023/12/31 05:20:25;;;;;;;;;;;6.50;82.00;;;;;;4182028;28;19996;-86
2023/12/31 05:22:49;;;;;;;;;;;6.50;81.90;;;;;;4194304;28;19956;-85
2023/12/31 05:25:19;;;;;;;;;;;6.50;82.00;;;;;;4193713;28;19942;-85
2023/12/31 05:27:53;;;;;;;;;;;6.40;81.80;;;;;;4192692;28;19920;-85
2023/12/31 05:30:23;;;;;;;;;;;6.50;81.90;;;;;;4176518;28;19951;-85
2023/12/31 05:32:49;;;;;;;;;;;6.50;81.80;;;;;;4180701;28;19927;-86
2023/12/31 05:38:07;;;;;;;;;;;6.50;81.70;;;;;;4192978;28;19909;-85
2023/12/31 05:40:44;;;;;;;;;;;6.50;81.70;;;;;;4190719;28;20048;-85
2023/12/31 05:43:19;;;;;;;;;;;6.40;81.60;;;;;;4181900;28;19913;-87
2023/12/31 05:45:42;;;;;;;;;;;6.40;81.60;;;;;;4190931;28;20154;-85
2023/12/31 05:48:18;;;;;;;;;;;6.50;81.70;;;;;;4192478;28;19913;-84
2023/12/31 05:50:42;;;;;;;;;;;6.40;81.60;;;;;;4178815;28;19921;-85
2023/12/31 05:53:05;;;;;;;;;;;6.50;81.70;;;;;;4189108;28;20032;-85
2023/12/31 05:55:26;;;;;;;;;;;6.40;81.60;;;;;;4186995;28;19946;-85
2023/12/31 05:57:52;;;;;;;;;;;6.40;81.60;;;;;;4176897;28;19932;-85
2023/12/31 06:00:23;;;;;;;;;;;6.40;81.60;;;;;;4175605;28;19970;-86
2023/12/31 06:02:24;;;;;;;;;;;6.40;81.50;;;;;;4175819;28;19917;-85
2023/12/31 06:04:37;;;;;;;;;;;6.40;81.60;;;;;;4160102;28;19921;-86
2023/12/31 06:06:50;;;;;;;;;;;6.40;81.60;;;;;;4159270;28;20015;-85
2023/12/31 06:09:21;;;;;;;;;;;6.50;81.70;;;;;;4178946;28;19917;-85
2023/12/31 06:11:22;;;;;;;;;;;6.40;81.60;;;;;;4161963;28;19941;-85
2023/12/31 06:13:34;;;;;;;;;;;6.50;81.70;;;;;;4153282;28;19929;-84
2023/12/31 06:15:55;;;;;;;;;;;6.40;81.70;;;;;;4175365;28;19951;-85
2023/12/31 06:18:21;;;;;;;;;;;6.40;81.70;;;;;;4176043;28;19925;-85
2023/12/31 06:20:50;;;;;;;;;;;6.30;81.70;;;;;;4179791;28;19913;-85
2023/12/31 06:23:35;;;;;;;;;;;6.40;81.70;;;;;;4176816;28;19962;-85
2023/12/31 06:25:59;;;;;;;;;;;6.40;81.80;;;;;;4173898;28;19921;-85
2023/12/31 06:28:20;;;;;;;;;;;6.50;81.90;;;;;;4179970;28;19913;-85
2023/12/31 06:30:51;;;;;;;;;;;6.30;81.80;;;;;;4186229;28;19951;-86
2023/12/31 06:33:12;;;;;;;;;;;6.40;81.80;;;;;;4188975;28;19921;-85
2023/12/31 06:35:32;;;;;;;;;;;6.50;81.90;;;;;;4179534;28;19913;-86
2023/12/31 06:37:53;;;;;;;;;;;6.50;81.90;;;;;;4190902;28;19913;-86
2023/12/31 06:40:49;;;;;;;;;;;6.50;81.90;;;;;;4188861;28;19912;-85
2023/12/31 06:43:16;;;;;;;;;;;6.40;81.80;;;;;;4177790;28;19924;-85
2023/12/31 06:45:37;;;;;;;;;;;6.30;81.80;;;;;;4175513;28;19921;-85
2023/12/31 06:48:03;;;;;;;;;;;6.50;81.90;;;;;;4190704;28;19938;-85
2023/12/31 06:50:36;;;;;;;;;;;6.50;81.80;;;;;;4182360;28;19943;-85
2023/12/31 06:53:16;;;;;;;;;;;;;;;;;;;;;
2023/12/31 06:55:43;;;;;;;;;;;6.50;81.90;;;;;;4194611;28;19920;-85
2023/12/31 06:57:49;;;;;;;;;;;6.50;81.90;;;;;;4178869;28;19970;-87
2023/12/31 07:00:22;;;;;;;;;;;6.50;81.90;;;;;;4177974;28;19925;-86
2023/12/31 07:02:32;;;;;;;;;;;6.40;81.90;;;;;;4179358;28;19913;-85
2023/12/31 07:04:44;;;;;;;;;;;6.50;81.90;;;;;;4162371;28;19917;-85
2023/12/31 07:07:00;;;;;;;;;;;6.40;81.80;;;;;;4162032;28;19956;-85
2023/12/31 07:09:22;;;;;;;;;;;6.50;81.80;;;;;;4162353;28;19913;-86
2023/12/31 07:11:35;;;;;;;;;;;6.50;81.80;;;;;;4162803;28;19913;-86
2023/12/31 07:13:47;;;;;;;;;;;6.50;81.80;;;;;;4171631;28;19924;-85
2023/12/31 07:16:14;;;;;;;;;;;6.40;81.80;;;;;;4185948;28;19995;-86
2023/12/31 07:18:37;;;;;;;;;;;6.60;81.90;;;;;;4173793;28;20333;-85
2023/12/31 07:23:44;;;;;;;;;;;6.40;81.80;;;;;;4192658;28;19937;-86
2023/12/31 07:26:27;;;;;;;;;;;6.50;82.00;;;;;;4192201;28;19931;-86
2023/12/31 07:31:46;;;;;;;;;;;6.50;82.00;;;;;;4194833;28;20043;-84
2023/12/31 07:34:29;;;;;;;;;;;6.40;81.90;;;;;;4197420;28;19932;-82
2023/12/31 07:36:55;;;;;;;;;;;6.40;82.00;;;;;;4185523;28;19979;-83
2023/12/31 07:39:16;;;;;;;;;;;6.40;82.00;;;;;;4186289;28;20076;-83
2023/12/31 07:41:37;;;;;;;;;;;6.40;82.00;;;;;;4200972;28;19958;-83
2023/12/31 07:44:04;;;;;;;;;;;6.50;82.10;;;;;;4194901;28;19912;-84
2023/12/31 07:52:34;;;;;;;;;;;6.30;82.10;;;;;;4169450;28;19936;-83
2023/12/31 07:54:38;;;;;;;;;;;6.30;82.10;;;;;;4173700;28;19913;-83
2023/12/31 07:56:49;;;;;;;;;;;6.30;82.10;;;;;;4165701;28;19909;-83
2023/12/31 07:58:53;;;;;;;;;;;6.30;82.20;;;;;;4184943;28;19931;-83
2023/12/31 08:01:36;;;;;;;;;;;6.30;82.20;;;;;;4180298;28;19915;-86
2023/12/31 08:03:58;;;;;;;;;;;6.30;82.20;;;;;;4212942;23;19983;-85
2023/12/31 08:06:12;;;;;;;;;;;6.30;82.20;;;;;;4181056;28;20216;-86
2023/12/31 08:08:39;;;;;;;;;;;6.30;82.30;;;;;;4182947;28;19917;-86
2023/12/31 08:11:02;;;;;;;;;;;6.20;82.20;;;;;;4174265;28;20397;-84
2023/12/31 08:13:38;;;;;;;;;;;6.30;82.30;;;;;;4196059;28;19919;-85
2023/12/31 08:16:19;;;;;;;;;;;6.30;82.40;;;;;;4207462;28;19931;-85
2023/12/31 08:18:23;;;;;;;;;;;6.20;82.30;;;;;;4194844;28;19955;-85
2023/12/31 08:20:53;;;;;;;;;;;6.20;82.30;;;;;;4194414;28;19954;-86
2023/12/31 08:23:18;;;;;;;;;;;6.20;82.40;;;;;;4194333;28;19920;-85
2023/12/31 08:25:39;;;;;;;;;;;6.20;82.40;;;;;;4193586;28;19924;-85
2023/12/31 08:28:21;;;;;;;;;;;6.20;82.40;;;;;;4210284;28;19924;-85
2023/12/31 08:31:02;;;;;;;;;;;6.20;82.40;;;;;;4198602;28;19917;-86
2023/12/31 08:33:34;;;;;;;;;;;6.20;82.60;;;;;;4195003;28;20091;-84
2023/12/31 08:36:04;;;;;;;;;;;6.30;82.60;;;;;;4210111;28;19916;-85
2023/12/31 08:38:37;;;;;;;;;;;6.30;82.50;;;;;;4196829;28;19917;-85
2023/12/31 08:41:05;;;;;;;;;;;6.10;82.50;;;;;;4196521;28;19980;-85
2023/12/31 08:43:42;;;;;;;;;;;;;;;;;;;;;
2023/12/31 08:46:07;;;;;;;;;;;6.10;82.60;;;;;;4211027;28;19912;-85
2023/12/31 08:48:35;;;;;;;;;;;6.10;82.60;;;;;;4207287;28;19946;-87
2023/12/31 08:50:56;;;;;;;;;;;6.20;82.70;;;;;;4194472;28;20034;-86
2023/12/31 08:53:03;;;;;;;;;;;6.10;82.60;;;;;;4192583;28;19935;-85
2023/12/31 08:55:25;;;;;;;;;;;6.10;82.70;;;;;;4169733;28;20287;-85
2023/12/31 08:57:51;;;;;;;;;;;6.10;82.80;;;;;;4187694;28;20073;-85
2023/12/31 09:00:48;;;;;;;;;;;6.10;82.70;;;;;;4213942;28;19923;-86
2023/12/31 09:03:19;;;;;;;;;;;6.20;82.80;;;;;;4205853;28;19916;-86
2023/12/31 09:05:44;;;;;;;;;;;6.10;82.80;;;;;;4196375;28;19979;-84
2023/12/31 09:08:08;;;;;;;;;;;6.10;82.90;;;;;;4213278;28;20576;-85
2023/12/31 09:10:29;;;;;;;;;;;6.20;83.10;;;;;;4199899;28;19920;-84
2023/12/31 09:17:07;;;;;;;;;;;6.20;83.10;;;;;;4362627;22;20406;-84
2023/12/31 09:19:15;;;;;;;;;;;6.20;83.20;;;;;;4144482;28;19933;-84
2023/12/31 09:24:33;;;;;;;;;;;6.20;83.10;;;;;;4131506;28;19928;-87
2023/12/31 09:26:36;;;;;;;;;;;6.20;83.10;;;;;;4160038;28;20041;-86
2023/12/31 09:29:07;;;;;;;;;;;;;;;;;;;;;
2023/12/31 09:31:54;;;;;;;;;;;6.30;83.20;;;;;;4154647;28;19976;-85
2023/12/31 09:34:25;;;;;;;;;;;6.20;83.20;;;;;;4155332;28;19921;-85
2023/12/31 09:36:54;;;;;;;;;;;6.20;83.30;;;;;;4143070;28;19944;-85
2023/12/31 09:39:57;;;;;;;;;;;6.30;83.30;;;;;;4081849;29;19925;-85
2023/12/31 09:44:52;;;;;;;;;;;6.30;83.20;;;;;;4159473;22;19980;-86
2023/12/31 09:47:39;;;;;;;;;;;6.20;83.20;;;;;;4158250;28;19917;-84
2023/12/31 09:50:00;;;;;;;;;;;6.30;83.30;;;;;;4128620;28;19921;-85
2023/12/31 09:52:21;;;;;;;;;;;6.40;83.40;;;;;;4155533;28;19921;-84
2023/12/31 09:54:51;;;;;;;;;;;6.40;83.40;;;;;;4152390;28;20009;-84
2023/12/31 09:57:14;;;;;;;;;;;6.30;83.30;;;;;;4141496;28;19917;-87
2023/12/31 09:59:38;;;;;;;;;;;6.30;83.30;;;;;;4138346;28;19929;-86
2023/12/31 10:02:22;;;;;;;;;;;6.30;83.30;;;;;;4135199;28;19944;-86
2023/12/31 10:04:58;;;;;;;;;;;6.40;84.20;;;;;;4144965;28;19928;-86
2023/12/31 10:07:22;;;;;;;;;;;6.40;83.40;;;;;;4142597;28;19924;-86
2023/12/31 10:10:11;;;;;;;;;;;6.40;83.40;;;;;;4142685;28;19933;-85
2023/12/31 10:12:44;;;;;;;;;;;6.40;83.40;;;;;;4138858;28;19917;-85
2023/12/31 10:15:09;;;;;;;;;;;6.30;83.30;;;;;;4202302;23;19933;-85
2023/12/31 10:17:29;;;;;;;;;;;6.50;83.40;;;;;;4175202;28;19923;-86
2023/12/31 10:19:41;;;;;;;;;;;6.40;83.40;;;;;;4142446;28;19929;-86
2023/12/31 10:21:56;;;;;;;;;;;6.50;83.30;;;;;;4142920;28;20009;-87
2023/12/31 10:24:27;;;;;;;;;;;6.50;83.30;;;;;;4160122;28;19920;-85
2023/12/31 10:26:51;;;;;;;;;;;6.40;83.30;;;;;;4169805;28;19917;-85
2023/12/31 10:29:20;;;;;;;;;;;6.40;83.20;;;;;;4172763;28;20025;-86
2023/12/31 10:31:49;;;;;;;;;;;6.40;83.20;;;;;;4173932;28;19927;-86
2023/12/31 10:34:27;;;;;;;;;;;6.40;83.20;;;;;;4168334;28;19932;-85
2023/12/31 10:39:41;;;;;;;;;;;6.50;83.40;;;;;;4170712;28;19921;-86
2023/12/31 10:42:05;;;;;;;;;;;6.40;83.40;;;;;;4160210;28;20003;-85
2023/12/31 10:44:14;;;;;;;;;;;6.30;83.30;;;;;;4170827;28;20728;-86
2023/12/31 10:46:41;;;;;;;;;;;6.40;83.30;;;;;;4155423;28;19928;-85
2023/12/31 10:49:27;;;;;;;;;;;6.40;83.40;;;;;;4164364;28;19921;-86
2023/12/31 10:51:51;;;;;;;;;;;6.40;83.30;;;;;;4167181;28;19917;-84
2023/12/31 10:56:58;;;;;;;;;;;6.40;83.40;;;;;;4172065;28;20322;-86
2023/12/31 10:59:22;;;;;;;;;;;6.40;83.40;;;;;;4154315;28;19925;-85
2023/12/31 11:04:26;;;;;;;;;;;6.40;83.50;;;;;;4168485;28;19929;-85
2023/12/31 11:06:47;;;;;;;;;;;6.50;83.50;;;;;;4157078;28;19933;-85
2023/12/31 11:09:08;;;;;;;;;;;6.60;83.60;;;;;;4159670;28;19917;-84
2023/12/31 11:11:28;;;;;;;;;;;6.50;83.50;;;;;;4173097;28;19936;-85
2023/12/31 11:13:32;;;;;;;;;;;6.50;83.50;;;;;;4160117;28;20568;-84
2023/12/31 11:15:34;;;;;;;;;;;6.50;83.50;;;;;;4144071;28;19953;-84
2023/12/31 11:17:56;;;;;;;;;;;6.60;83.50;;;;;;4143088;28;19917;-84
2023/12/31 11:23:10;;;;;;;;;;;6.50;83.50;;;;;;4170120;28;19986;-86
2023/12/31 11:25:36;;;;;;;;;;;6.60;83.50;;;;;;4138395;28;19917;-85
2023/12/31 11:27:55;;;;;;;;;;;6.60;83.50;;;;;;4167912;28;19944;-85
2023/12/31 11:30:00;;;;;;;;;;;6.70;83.60;;;;;;4141555;28;19917;-84
2023/12/31 11:32:05;;;;;;;;;;;6.70;83.50;;;;;;4159150;28;20603;-85
2023/12/31 11:34:35;;;;;;;;;;;6.60;83.50;;;;;;4166528;28;20001;-87
2023/12/31 11:36:59;;;;;;;;;;;6.70;83.50;;;;;;4175499;28;19972;-86
2023/12/31 11:39:24;;;;;;;;;;;6.70;83.50;;;;;;4169109;28;19955;-83
2023/12/31 11:41:58;;;;;;;;;;;6.80;83.50;;;;;;4167260;28;19917;-85
2023/12/31 11:47:29;;;;;;;;;;;6.70;83.50;;;;;;4162482;28;19917;-84
2023/12/31 11:49:52;;;;;;;;;;;6.80;83.50;;;;;;4165639;28;19920;-85
2023/12/31 11:52:13;;;;;;;;;;;6.80;83.40;;;;;;4156803;28;19928;-85
2023/12/31 11:54:33;;;;;;;;;;;6.80;83.40;;;;;;4155824;28;19927;-85
2023/12/31 11:56:54;;;;;;;;;;;6.90;83.40;;;;;;4170486;28;20019;-86
2023/12/31 11:58:55;;;;;;;;;;;6.90;83.40;;;;;;4169588;28;20410;-85
2023/12/31 12:00:55;;;;;;;;;;;6.90;83.40;;;;;;4165844;28;19973;-85
2023/12/31 12:03:03;;;;;;;;;;;7.00;83.40;;;;;;4138471;28;19921;-86
2023/12/31 12:08:07;;;;;;;;;;;7.00;83.40;;;;;;4161478;28;20018;-87
2023/12/31 12:10:30;;;;;;;;;;;6.90;83.30;;;;;;4168554;28;19913;-85
2023/12/31 12:12:53;;;;;;;;;;;7.00;83.30;;;;;;4174517;28;19921;-83
2023/12/31 12:15:14;;;;;;;;;;;7.00;83.30;;;;;;4172090;28;19921;-85
2023/12/31 12:17:35;;;;;;;;;;;7.00;83.30;;;;;;4121580;28;19920;-85
2023/12/31 12:19:58;;;;;;;;;;;7.00;83.20;;;;;;4173461;28;19928;-85
2023/12/31 12:22:23;;;;;;;;;;;6.90;83.10;;;;;;4176010;28;19923;-85
2023/12/31 12:24:44;;;;;;;;;;;7.00;83.10;;;;;;4145336;28;19913;-86
2023/12/31 12:27:21;;;;;;;;;;;;;;;;;;;;;
2023/12/31 12:29:27;;;;;;;;;;;7.00;83.10;;;;;;4154058;28;19921;-84
2023/12/31 12:31:35;;;;;;;;;;;7.10;83.10;;;;;;4154614;28;19913;-86
2023/12/31 12:33:56;;;;;;;;;;;7.00;83.10;;;;;;4158810;28;20386;-85
2023/12/31 12:36:25;;;;;;;;;;;7.00;83.10;;;;;;4166321;28;19975;-84
2023/12/31 12:38:48;;;;;;;;;;;7.00;83.10;;;;;;4168746;28;19974;-84
2023/12/31 12:41:15;;;;;;;;;;;7.10;83.00;;;;;;4155087;28;19924;-86
2023/12/31 12:43:38;;;;;;;;;;;7.00;83.00;;;;;;4152774;28;20051;-85
2023/12/31 12:46:06;;;;;;;;;;;7.10;83.10;;;;;;4140041;28;19968;-85
2023/12/31 12:48:22;;;;;;;;;;;7.10;83.00;;;;;;4146638;28;19917;-84
2023/12/31 12:53:30;;;;;;;;;;;7.10;83.00;;;;;;4096827;28;19950;-86
2023/12/31 12:55:50;;;;;;;;;;;7.10;83.10;;;;;;4153031;28;19932;-86
2023/12/31 12:58:11;;;;;;;;;;;7.10;83.10;;;;;;4150202;28;20001;-85
2023/12/31 13:00:32;;;;;;;;;;;7.20;83.10;;;;;;4151732;28;19917;-85
2023/12/31 13:02:53;;;;;;;;;;;7.10;83.10;;;;;;4169927;28;19920;-84
2023/12/31 13:05:26;;;;;;;;;;;7.20;83.10;;;;;;4156994;28;19944;-85
2023/12/31 13:07:55;;;;;;;;;;;7.10;83.00;;;;;;4168886;28;19920;-85
2023/12/31 13:09:55;;;;;;;;;;;7.20;83.10;;;;;;4135372;28;20592;-86
2023/12/31 13:11:56;;;;;;;;;;;7.20;83.10;;;;;;4153422;28;20027;-86
2023/12/31 13:13:57;;;;;;;;;;;7.20;83.10;;;;;;4141032;28;20379;-85
2023/12/31 13:16:04;;;;;;;;;;;7.10;83.00;;;;;;4137724;28;19959;-86
2023/12/31 13:18:25;;;;;;;;;;;7.20;83.10;;;;;;4157245;28;19937;-85
2023/12/31 13:20:46;;;;;;;;;;;7.30;83.20;;;;;;4143712;28;19956;-87
2023/12/31 13:22:47;;;;;;;;;;;7.30;83.20;;;;;;4147499;28;19921;-85
2023/12/31 13:25:09;;;;;;;;;;;7.40;83.20;;;;;;4163742;28;19978;-85
2023/12/31 13:27:30;;;;;;;;;;;7.30;83.10;;;;;;4164743;28;19928;-86
2023/12/31 13:29:56;;;;;;;;;;;7.40;83.20;;;;;;4152442;28;19921;-84
2023/12/31 13:32:24;;;;;;;;;;;7.40;83.10;;;;;;4163922;28;19928;-85
2023/12/31 13:34:35;;;;;;;;;;;7.30;83.00;;;;;;4166102;28;19912;-85
2023/12/31 13:36:56;;;;;;;;;;;7.40;83.00;;;;;;4166641;28;19941;-85
2023/12/31 13:39:17;;;;;;;;;;;7.40;83.00;;;;;;4152919;28;20002;-85
2023/12/31 13:41:38;;;;;;;;;;;7.40;82.90;;;;;;4166946;28;19929;-87
2023/12/31 13:43:58;;;;;;;;;;;7.40;82.90;;;;;;4165660;28;19921;-85
2023/12/31 13:46:03;;;;;;;;;;;7.40;82.90;;;;;;4152836;28;19928;-84
2023/12/31 13:48:24;;;;;;;;;;;7.50;82.80;;;;;;4167199;28;19929;-86
2023/12/31 13:50:48;;;;;;;;;;;7.40;82.70;;;;;;4166761;28;19917;-84
2023/12/31 13:53:09;;;;;;;;;;;7.50;82.70;;;;;;4153511;28;19941;-84
2023/12/31 13:55:33;;;;;;;;;;;7.40;82.70;;;;;;4164959;28;19920;-85
2023/12/31 13:57:57;;;;;;;;;;;7.50;82.70;;;;;;4150825;28;19914;-84
2023/12/31 14:00:21;;;;;;;;;;;7.50;82.70;;;;;;4154158;28;19921;-84
2023/12/31 14:02:42;;;;;;;;;;;7.40;82.60;;;;;;4150547;28;19921;-86
2023/12/31 14:05:03;;;;;;;;;;;7.50;82.60;;;;;;4161437;28;19913;-87
2023/12/31 14:07:24;;;;;;;;;;;7.50;82.60;;;;;;4153053;28;19936;-84
2023/12/31 14:09:44;;;;;;;;;;;7.50;82.60;;;;;;4165505;28;19921;-84
2023/12/31 14:12:05;;;;;;;;;;;7.50;82.60;;;;;;4146787;28;19926;-85
2023/12/31 14:14:41;;;;;;;;;;;7.50;82.60;;;;;;4168016;28;20478;-87
2023/12/31 14:17:02;;;;;;;;;;;7.50;82.60;;;;;;4153254;28;19971;-85
2023/12/31 14:19:22;;;;;;;;;;;7.50;82.50;;;;;;4167623;28;19943;-85
2023/12/31 14:22:06;;;;;;;;;;;7.70;82.60;;;;;;4167966;28;19916;-85
2023/12/31 14:24:28;;;;;;;;;;;7.60;82.50;;;;;;4148953;28;19917;-85
2023/12/31 14:26:55;;;;;;;;;;;7.70;82.30;;;;;;4151899;28;19929;-86
2023/12/31 14:29:15;;;;;;;;;;;7.60;82.30;;;;;;4168248;28;19921;-85
2023/12/31 14:31:38;;;;;;;;;;;7.60;82.30;;;;;;4150093;28;20000;-85
2023/12/31 14:34:02;;;;;;;;;;;7.60;82.30;;;;;;4169688;28;20012;-86
2023/12/31 14:36:23;;;;;;;;;;;7.60;82.30;;;;;;4167944;28;19917;-86
2023/12/31 14:38:51;;;;;;;;;;;7.70;82.30;;;;;;4168803;28;19940;-85
2023/12/31 14:41:19;;;;;;;;;;;7.70;82.20;;;;;;4167091;28;19958;-85